sensor_id;sensor_type;location;lat;lon;timestamp;P1;durP1;ratioP1;P2;durP2;ratioP2
22166;SDS011;11249;52.468;13.776;2023-04-24T00:01:01;8.45;;;5.97;;
22166;SDS011;11249;52.468;13.776;2023-04-24T00:03:28;8.10;;;6.43;;
22166;SDS011;11249;52.468;13.776;2023-04-24T00:05:55;7.88;;;6.63;;
22166;SDS011;11249;52.468;13.776;2023-04-24T00:08:22;7.85;;;6.72;;
22166;SDS011;11249;52.468;13.776;2023-04-24T00:10:50;6.72;;;5.97;;
22166;SDS011;11249;52.468;13.776;2023-04-24T00:13:18;8.52;;;6.80;;
22166;SDS011;11249;52.468;13.776;2023-04-24T00:15:47;7.90;;;6.22;;
22166;SDS011;11249;52.468;13.776;2023-04-24T00:18:14;7.35;;;6.65;;
22166;SDS011;11249;52.468;13.776;2023-04-24T00:20:41;8.05;;;7.10;;
22166;SDS011;11249;52.468;13.776;2023-04-24T00:23:09;7.70;;;6.90;;
22166;SDS011;11249;52.468;13.776;2023-04-24T00:25:36;6.78;;;6.13;;
22166;SDS011;11249;52.468;13.776;2023-04-24T00:28:03;7.53;;;6.35;;
22166;SDS011;11249;52.468;13.776;2023-04-24T00:30:30;7.30;;;5.93;;
22166;SDS011;11249;52.468;13.776;2023-04-24T00:32:56;7.40;;;6.55;;
22166;SDS011;11249;52.468;13.776;2023-04-24T00:35:24;7.40;;;6.60;;
22166;SDS011;11249;52.468;13.776;2023-04-24T00:37:50;7.55;;;6.68;;
22166;SDS011;11249;52.468;13.776;2023-04-24T00:40:17;6.97;;;6.25;;
22166;SDS011;11249;52.468;13.776;2023-04-24T00:42:44;8.50;;;7.18;;
22166;SDS011;11249;52.468;13.776;2023-04-24T00:45:11;8.25;;;6.95;;
22166;SDS011;11249;52.468;13.776;2023-04-24T00:47:39;11.60;;;7.00;;
22166;SDS011;11249;52.468;13.776;2023-04-24T00:50:07;7.75;;;6.95;;
22166;SDS011;11249;52.468;13.776;2023-04-24T00:52:34;8.43;;;7.28;;
22166;SDS011;11249;52.468;13.776;2023-04-24T00:55:01;13.32;;;7.80;;
22166;SDS011;11249;52.468;13.776;2023-04-24T00:57:27;9.40;;;7.88;;
22166;SDS011;11249;52.468;13.776;2023-04-24T00:59:54;7.82;;;6.88;;
22166;SDS011;11249;52.468;13.776;2023-04-24T01:02:21;7.57;;;6.72;;
22166;SDS011;11249;52.468;13.776;2023-04-24T01:04:50;11.32;;;8.60;;
22166;SDS011;11249;52.468;13.776;2023-04-24T01:07:19;9.05;;;8.13;;
22166;SDS011;11249;52.468;13.776;2023-04-24T01:09:47;10.32;;;8.13;;
22166;SDS011;11249;52.468;13.776;2023-04-24T01:12:17;9.02;;;7.55;;
22166;SDS011;11249;52.468;13.776;2023-04-24T01:14:44;9.13;;;7.65;;
22166;SDS011;11249;52.468;13.776;2023-04-24T01:17:11;9.68;;;8.20;;
22166;SDS011;11249;52.468;13.776;2023-04-24T01:19:38;9.50;;;7.30;;
22166;SDS011;11249;52.468;13.776;2023-04-24T01:22:13;8.80;;;7.43;;
22166;SDS011;11249;52.468;13.776;2023-04-24T01:24:40;8.70;;;7.78;;
22166;SDS011;11249;52.468;13.776;2023-04-24T01:27:08;9.63;;;8.32;;
22166;SDS011;11249;52.468;13.776;2023-04-24T01:29:36;11.55;;;8.32;;
22166;SDS011;11249;52.468;13.776;2023-04-24T01:32:03;9.30;;;8.40;;
22166;SDS011;11249;52.468;13.776;2023-04-24T01:34:31;9.20;;;7.95;;
22166;SDS011;11249;52.468;13.776;2023-04-24T01:36:58;10.25;;;8.40;;
22166;SDS011;11249;52.468;13.776;2023-04-24T01:39:25;8.90;;;7.72;;
22166;SDS011;11249;52.468;13.776;2023-04-24T01:41:55;10.32;;;8.30;;
22166;SDS011;11249;52.468;13.776;2023-04-24T01:44:22;10.50;;;8.10;;
22166;SDS011;11249;52.468;13.776;2023-04-24T01:46:49;10.25;;;8.90;;
22166;SDS011;11249;52.468;13.776;2023-04-24T01:49:16;8.90;;;7.82;;
22166;SDS011;11249;52.468;13.776;2023-04-24T01:51:43;8.40;;;7.43;;
22166;SDS011;11249;52.468;13.776;2023-04-24T01:54:10;9.88;;;7.80;;
22166;SDS011;11249;52.468;13.776;2023-04-24T01:56:39;9.80;;;8.48;;
22166;SDS011;11249;52.468;13.776;2023-04-24T01:59:12;8.93;;;8.02;;
22166;SDS011;11249;52.468;13.776;2023-04-24T02:01:39;11.40;;;8.50;;
22166;SDS011;11249;52.468;13.776;2023-04-24T02:04:06;11.70;;;8.60;;
22166;SDS011;11249;52.468;13.776;2023-04-24T02:06:34;9.52;;;8.15;;
22166;SDS011;11249;52.468;13.776;2023-04-24T02:09:01;9.35;;;8.13;;
22166;SDS011;11249;52.468;13.776;2023-04-24T02:11:29;9.45;;;8.48;;
22166;SDS011;11249;52.468;13.776;2023-04-24T02:13:56;9.40;;;7.93;;
22166;SDS011;11249;52.468;13.776;2023-04-24T02:16:23;9.10;;;8.00;;
22166;SDS011;11249;52.468;13.776;2023-04-24T02:18:49;11.50;;;8.23;;
22166;SDS011;11249;52.468;13.776;2023-04-24T02:21:16;9.77;;;8.77;;
22166;SDS011;11249;52.468;13.776;2023-04-24T02:23:43;11.00;;;9.00;;
22166;SDS011;11249;52.468;13.776;2023-04-24T02:26:09;11.43;;;8.80;;
22166;SDS011;11249;52.468;13.776;2023-04-24T02:28:37;13.63;;;8.35;;
22166;SDS011;11249;52.468;13.776;2023-04-24T02:31:03;10.10;;;8.48;;
22166;SDS011;11249;52.468;13.776;2023-04-24T02:33:31;9.32;;;8.30;;
22166;SDS011;11249;52.468;13.776;2023-04-24T02:35:58;9.10;;;7.97;;
22166;SDS011;11249;52.468;13.776;2023-04-24T02:38:24;9.77;;;8.88;;
22166;SDS011;11249;52.468;13.776;2023-04-24T02:40:51;11.55;;;8.93;;
22166;SDS011;11249;52.468;13.776;2023-04-24T02:43:18;10.20;;;8.35;;
22166;SDS011;11249;52.468;13.776;2023-04-24T02:45:44;10.60;;;8.80;;
22166;SDS011;11249;52.468;13.776;2023-04-24T02:48:11;10.57;;;8.45;;
22166;SDS011;11249;52.468;13.776;2023-04-24T02:50:38;12.00;;;9.35;;
22166;SDS011;11249;52.468;13.776;2023-04-24T02:53:05;10.55;;;8.23;;
22166;SDS011;11249;52.468;13.776;2023-04-24T02:55:31;10.18;;;8.85;;
22166;SDS011;11249;52.468;13.776;2023-04-24T02:57:58;11.90;;;8.75;;
22166;SDS011;11249;52.468;13.776;2023-04-24T03:00:25;9.52;;;8.52;;
22166;SDS011;11249;52.468;13.776;2023-04-24T03:02:51;10.55;;;8.70;;
22166;SDS011;11249;52.468;13.776;2023-04-24T03:05:19;9.80;;;8.80;;
22166;SDS011;11249;52.468;13.776;2023-04-24T03:07:46;11.30;;;10.10;;
22166;SDS011;11249;52.468;13.776;2023-04-24T03:10:13;11.98;;;9.52;;
22166;SDS011;11249;52.468;13.776;2023-04-24T03:12:40;10.70;;;8.75;;
22166;SDS011;11249;52.468;13.776;2023-04-24T03:15:07;10.73;;;9.38;;
22166;SDS011;11249;52.468;13.776;2023-04-24T03:17:34;10.20;;;9.20;;
22166;SDS011;11249;52.468;13.776;2023-04-24T03:20:01;15.07;;;9.90;;
22166;SDS011;11249;52.468;13.776;2023-04-24T03:22:28;11.65;;;9.23;;
22166;SDS011;11249;52.468;13.776;2023-04-24T03:24:55;10.18;;;9.10;;
22166;SDS011;11249;52.468;13.776;2023-04-24T03:27:25;10.18;;;9.10;;
22166;SDS011;11249;52.468;13.776;2023-04-24T03:29:52;9.38;;;8.00;;
22166;SDS011;11249;52.468;13.776;2023-04-24T03:32:22;10.40;;;8.35;;
22166;SDS011;11249;52.468;13.776;2023-04-24T03:34:49;9.10;;;8.23;;
22166;SDS011;11249;52.468;13.776;2023-04-24T03:37:16;8.95;;;8.05;;
22166;SDS011;11249;52.468;13.776;2023-04-24T03:39:43;8.68;;;7.63;;
22166;SDS011;11249;52.468;13.776;2023-04-24T03:42:10;11.00;;;8.52;;
22166;SDS011;11249;52.468;13.776;2023-04-24T03:44:37;9.15;;;7.97;;
22166;SDS011;11249;52.468;13.776;2023-04-24T03:47:03;10.00;;;8.75;;
22166;SDS011;11249;52.468;13.776;2023-04-24T03:49:30;11.27;;;8.50;;
22166;SDS011;11249;52.468;13.776;2023-04-24T03:51:57;8.85;;;7.75;;
22166;SDS011;11249;52.468;13.776;2023-04-24T03:54:24;9.18;;;8.27;;
22166;SDS011;11249;52.468;13.776;2023-04-24T03:56:51;9.48;;;8.48;;
22166;SDS011;11249;52.468;13.776;2023-04-24T03:59:17;10.30;;;8.40;;
22166;SDS011;11249;52.468;13.776;2023-04-24T04:01:44;9.15;;;8.20;;
22166;SDS011;11249;52.468;13.776;2023-04-24T04:04:11;9.48;;;8.25;;
22166;SDS011;11249;52.468;13.776;2023-04-24T04:06:38;10.13;;;8.35;;
22166;SDS011;11249;52.468;13.776;2023-04-24T04:09:05;10.05;;;7.63;;
22166;SDS011;11249;52.468;13.776;2023-04-24T04:11:33;8.88;;;8.05;;
22166;SDS011;11249;52.468;13.776;2023-04-24T04:13:59;12.18;;;8.55;;
22166;SDS011;11249;52.468;13.776;2023-04-24T04:16:26;10.45;;;8.57;;
22166;SDS011;11249;52.468;13.776;2023-04-24T04:18:53;10.07;;;8.52;;
22166;SDS011;11249;52.468;13.776;2023-04-24T04:21:19;10.55;;;9.10;;
22166;SDS011;11249;52.468;13.776;2023-04-24T04:23:46;9.23;;;7.93;;
22166;SDS011;11249;52.468;13.776;2023-04-24T04:26:14;9.88;;;7.78;;
22166;SDS011;11249;52.468;13.776;2023-04-24T04:28:40;8.27;;;7.47;;
22166;SDS011;11249;52.468;13.776;2023-04-24T04:31:07;8.85;;;7.95;;
22166;SDS011;11249;52.468;13.776;2023-04-24T04:33:34;10.02;;;8.60;;
22166;SDS011;11249;52.468;13.776;2023-04-24T04:36:02;9.75;;;8.60;;
22166;SDS011;11249;52.468;13.776;2023-04-24T04:38:29;11.07;;;8.10;;
22166;SDS011;11249;52.468;13.776;2023-04-24T04:40:56;9.50;;;8.13;;
22166;SDS011;11249;52.468;13.776;2023-04-24T04:43:23;8.63;;;7.72;;
22166;SDS011;11249;52.468;13.776;2023-04-24T04:45:51;9.15;;;8.20;;
22166;SDS011;11249;52.468;13.776;2023-04-24T04:48:18;9.07;;;7.18;;
22166;SDS011;11249;52.468;13.776;2023-04-24T04:50:45;8.35;;;7.55;;
22166;SDS011;11249;52.468;13.776;2023-04-24T04:53:11;8.43;;;7.35;;
22166;SDS011;11249;52.468;13.776;2023-04-24T04:55:38;11.07;;;7.97;;
22166;SDS011;11249;52.468;13.776;2023-04-24T04:58:05;8.80;;;7.20;;
22166;SDS011;11249;52.468;13.776;2023-04-24T05:00:31;9.27;;;7.57;;
22166;SDS011;11249;52.468;13.776;2023-04-24T05:03:01;10.05;;;7.63;;
22166;SDS011;11249;52.468;13.776;2023-04-24T05:05:46;8.57;;;6.93;;
22166;SDS011;11249;52.468;13.776;2023-04-24T05:08:12;8.23;;;7.35;;
22166;SDS011;11249;52.468;13.776;2023-04-24T05:10:52;8.02;;;7.32;;
22166;SDS011;11249;52.468;13.776;2023-04-24T05:13:19;8.40;;;7.60;;
22166;SDS011;11249;52.468;13.776;2023-04-24T05:16:01;7.80;;;7.00;;
22166;SDS011;11249;52.468;13.776;2023-04-24T05:18:27;7.45;;;6.75;;
22166;SDS011;11249;52.468;13.776;2023-04-24T05:20:54;9.00;;;6.43;;
22166;SDS011;11249;52.468;13.776;2023-04-24T05:23:21;8.18;;;6.57;;
22166;SDS011;11249;52.468;13.776;2023-04-24T05:25:48;7.70;;;6.90;;
22166;SDS011;11249;52.468;13.776;2023-04-24T05:28:15;6.43;;;5.78;;
22166;SDS011;11249;52.468;13.776;2023-04-24T05:30:42;6.55;;;5.80;;
22166;SDS011;11249;52.468;13.776;2023-04-24T05:33:08;7.78;;;6.97;;
22166;SDS011;11249;52.468;13.776;2023-04-24T05:35:36;8.02;;;6.93;;
22166;SDS011;11249;52.468;13.776;2023-04-24T05:38:02;6.93;;;6.22;;
22166;SDS011;11249;52.468;13.776;2023-04-24T05:40:29;6.75;;;6.05;;
22166;SDS011;11249;52.468;13.776;2023-04-24T05:42:56;8.52;;;6.40;;
22166;SDS011;11249;52.468;13.776;2023-04-24T05:45:22;6.30;;;5.72;;
22166;SDS011;11249;52.468;13.776;2023-04-24T05:47:49;7.00;;;6.25;;
22166;SDS011;11249;52.468;13.776;2023-04-24T05:50:18;6.90;;;6.22;;
22166;SDS011;11249;52.468;13.776;2023-04-24T05:52:45;7.13;;;6.38;;
22166;SDS011;11249;52.468;13.776;2023-04-24T05:55:11;7.63;;;5.72;;
22166;SDS011;11249;52.468;13.776;2023-04-24T05:57:39;7.15;;;5.35;;
22166;SDS011;11249;52.468;13.776;2023-04-24T06:00:06;6.75;;;5.95;;
22166;SDS011;11249;52.468;13.776;2023-04-24T06:02:34;6.88;;;5.97;;
22166;SDS011;11249;52.468;13.776;2023-04-24T06:05:01;6.45;;;5.72;;
22166;SDS011;11249;52.468;13.776;2023-04-24T06:07:28;7.50;;;6.10;;
22166;SDS011;11249;52.468;13.776;2023-04-24T06:09:55;6.22;;;5.63;;
22166;SDS011;11249;52.468;13.776;2023-04-24T06:12:22;6.18;;;5.32;;
22166;SDS011;11249;52.468;13.776;2023-04-24T06:14:49;6.05;;;4.93;;
22166;SDS011;11249;52.468;13.776;2023-04-24T06:17:16;6.10;;;5.00;;
22166;SDS011;11249;52.468;13.776;2023-04-24T06:19:43;7.43;;;5.53;;
22166;SDS011;11249;52.468;13.776;2023-04-24T06:22:10;4.00;;;3.60;;
22166;SDS011;11249;52.468;13.776;2023-04-24T06:24:37;4.68;;;3.88;;
22166;SDS011;11249;52.468;13.776;2023-04-24T06:27:03;3.50;;;3.20;;
22166;SDS011;11249;52.468;13.776;2023-04-24T06:29:30;2.83;;;2.58;;
22166;SDS011;11249;52.468;13.776;2023-04-24T06:31:57;3.50;;;2.60;;
22166;SDS011;11249;52.468;13.776;2023-04-24T06:34:24;2.55;;;2.20;;
22166;SDS011;11249;52.468;13.776;2023-04-24T06:36:51;2.72;;;2.22;;
22166;SDS011;11249;52.468;13.776;2023-04-24T06:39:18;2.60;;;2.40;;
22166;SDS011;11249;52.468;13.776;2023-04-24T06:41:44;2.60;;;2.20;;
22166;SDS011;11249;52.468;13.776;2023-04-24T06:44:11;5.32;;;2.35;;
22166;SDS011;11249;52.468;13.776;2023-04-24T06:46:38;4.07;;;2.63;;
22166;SDS011;11249;52.468;13.776;2023-04-24T06:49:06;3.28;;;1.98;;
22166;SDS011;11249;52.468;13.776;2023-04-24T06:51:33;2.50;;;2.00;;
22166;SDS011;11249;52.468;13.776;2023-04-24T06:54:00;2.20;;;2.00;;
22166;SDS011;11249;52.468;13.776;2023-04-24T06:56:27;13.43;;;7.20;;
22166;SDS011;11249;52.468;13.776;2023-04-24T06:58:55;4.43;;;2.35;;
22166;SDS011;11249;52.468;13.776;2023-04-24T07:01:22;4.90;;;2.40;;
22166;SDS011;11249;52.468;13.776;2023-04-24T07:03:49;2.65;;;1.90;;
22166;SDS011;11249;52.468;13.776;2023-04-24T07:06:16;3.83;;;2.50;;
22166;SDS011;11249;52.468;13.776;2023-04-24T07:08:44;3.72;;;2.15;;
22166;SDS011;11249;52.468;13.776;2023-04-24T07:11:11;3.00;;;2.22;;
22166;SDS011;11249;52.468;13.776;2023-04-24T07:13:38;2.92;;;2.00;;
22166;SDS011;11249;52.468;13.776;2023-04-24T07:16:08;3.42;;;1.80;;
22166;SDS011;11249;52.468;13.776;2023-04-24T07:18:35;2.50;;;2.05;;
22166;SDS011;11249;52.468;13.776;2023-04-24T07:21:03;2.25;;;1.65;;
22166;SDS011;11249;52.468;13.776;2023-04-24T07:23:30;3.17;;;1.88;;
22166;SDS011;11249;52.468;13.776;2023-04-24T07:25:57;4.90;;;1.70;;
22166;SDS011;11249;52.468;13.776;2023-04-24T07:28:24;2.58;;;2.28;;
22166;SDS011;11249;52.468;13.776;2023-04-24T07:30:51;1.67;;;1.58;;
22166;SDS011;11249;52.468;13.776;2023-04-24T07:33:20;2.35;;;1.52;;
22166;SDS011;11249;52.468;13.776;2023-04-24T07:35:47;3.08;;;1.30;;
22166;SDS011;11249;52.468;13.776;2023-04-24T07:38:14;2.00;;;1.38;;
22166;SDS011;11249;52.468;13.776;2023-04-24T07:40:40;5.63;;;1.90;;
22166;SDS011;11249;52.468;13.776;2023-04-24T07:43:07;3.22;;;1.50;;
22166;SDS011;11249;52.468;13.776;2023-04-24T07:45:34;2.45;;;1.50;;
22166;SDS011;11249;52.468;13.776;2023-04-24T07:48:03;1.23;;;1.13;;
22166;SDS011;11249;52.468;13.776;2023-04-24T07:50:30;5.95;;;1.40;;
22166;SDS011;11249;52.468;13.776;2023-04-24T07:52:57;1.73;;;1.20;;
22166;SDS011;11249;52.468;13.776;2023-04-24T07:55:24;1.98;;;1.27;;
22166;SDS011;11249;52.468;13.776;2023-04-24T07:57:53;3.17;;;1.10;;
22166;SDS011;11249;52.468;13.776;2023-04-24T08:00:20;3.35;;;1.38;;
22166;SDS011;11249;52.468;13.776;2023-04-24T08:02:47;2.33;;;1.40;;
22166;SDS011;11249;52.468;13.776;2023-04-24T08:05:14;1.30;;;1.20;;
22166;SDS011;11249;52.468;13.776;2023-04-24T08:07:41;1.45;;;1.35;;
22166;SDS011;11249;52.468;13.776;2023-04-24T08:10:12;2.88;;;1.27;;
22166;SDS011;11249;52.468;13.776;2023-04-24T08:12:39;2.30;;;1.40;;
22166;SDS011;11249;52.468;13.776;2023-04-24T08:15:07;1.45;;;1.25;;
22166;SDS011;11249;52.468;13.776;2023-04-24T08:17:35;3.67;;;1.23;;
22166;SDS011;11249;52.468;13.776;2023-04-24T08:20:05;3.17;;;1.40;;
22166;SDS011;11249;52.468;13.776;2023-04-24T08:22:36;1.52;;;1.13;;
22166;SDS011;11249;52.468;13.776;2023-04-24T08:25:03;1.48;;;1.10;;
22166;SDS011;11249;52.468;13.776;2023-04-24T08:27:30;1.10;;;0.80;;
22166;SDS011;11249;52.468;13.776;2023-04-24T08:29:57;2.35;;;0.95;;
22166;SDS011;11249;52.468;13.776;2023-04-24T08:32:25;1.33;;;1.10;;
22166;SDS011;11249;52.468;13.776;2023-04-24T08:34:57;1.30;;;0.90;;
22166;SDS011;11249;52.468;13.776;2023-04-24T08:39:52;3.20;;;0.90;;
22166;SDS011;11249;52.468;13.776;2023-04-24T08:42:19;3.95;;;1.02;;
22166;SDS011;11249;52.468;13.776;2023-04-24T08:44:48;1.52;;;0.73;;
22166;SDS011;11249;52.468;13.776;2023-04-24T08:47:16;1.15;;;1.00;;
22166;SDS011;11249;52.468;13.776;2023-04-24T08:49:42;0.88;;;0.88;;
22166;SDS011;11249;52.468;13.776;2023-04-24T08:52:10;1.85;;;1.00;;
22166;SDS011;11249;52.468;13.776;2023-04-24T08:54:39;2.50;;;0.88;;
22166;SDS011;11249;52.468;13.776;2023-04-24T08:57:06;0.77;;;0.73;;
22166;SDS011;11249;52.468;13.776;2023-04-24T08:59:35;1.27;;;0.70;;
22166;SDS011;11249;52.468;13.776;2023-04-24T09:02:02;3.50;;;1.08;;
22166;SDS011;11249;52.468;13.776;2023-04-24T09:04:30;0.60;;;0.60;;
22166;SDS011;11249;52.468;13.776;2023-04-24T09:07:02;1.10;;;0.90;;
22166;SDS011;11249;52.468;13.776;2023-04-24T09:09:31;3.40;;;0.75;;
22166;SDS011;11249;52.468;13.776;2023-04-24T09:11:59;2.13;;;0.90;;
22166;SDS011;11249;52.468;13.776;2023-04-24T09:14:27;1.42;;;0.65;;
22166;SDS011;11249;52.468;13.776;2023-04-24T09:16:54;1.60;;;0.80;;
22166;SDS011;11249;52.468;13.776;2023-04-24T09:19:21;1.48;;;0.80;;
22166;SDS011;11249;52.468;13.776;2023-04-24T09:21:48;0.55;;;0.55;;
22166;SDS011;11249;52.468;13.776;2023-04-24T09:24:17;1.40;;;0.68;;
22166;SDS011;11249;52.468;13.776;2023-04-24T09:26:49;1.30;;;0.50;;
22166;SDS011;11249;52.468;13.776;2023-04-24T09:29:27;2.03;;;0.55;;
22166;SDS011;11249;52.468;13.776;2023-04-24T09:31:54;4.13;;;1.13;;
22166;SDS011;11249;52.468;13.776;2023-04-24T09:34:25;2.25;;;0.57;;
22166;SDS011;11249;52.468;13.776;2023-04-24T09:36:53;1.60;;;0.68;;
22166;SDS011;11249;52.468;13.776;2023-04-24T09:39:20;1.63;;;0.68;;
22166;SDS011;11249;52.468;13.776;2023-04-24T09:41:48;3.15;;;1.08;;
22166;SDS011;11249;52.468;13.776;2023-04-24T09:44:26;1.13;;;0.80;;
22166;SDS011;11249;52.468;13.776;2023-04-24T09:46:55;0.75;;;0.65;;
22166;SDS011;11249;52.468;13.776;2023-04-24T09:49:24;2.15;;;0.80;;
22166;SDS011;11249;52.468;13.776;2023-04-24T09:51:51;4.43;;;1.05;;
22166;SDS011;11249;52.468;13.776;2023-04-24T09:54:18;1.45;;;0.90;;
22166;SDS011;11249;52.468;13.776;2023-04-24T09:56:48;1.20;;;0.88;;
22166;SDS011;11249;52.468;13.776;2023-04-24T09:59:17;1.60;;;0.90;;
22166;SDS011;11249;52.468;13.776;2023-04-24T10:01:45;0.98;;;0.82;;
22166;SDS011;11249;52.468;13.776;2023-04-24T10:06:43;2.75;;;1.02;;
22166;SDS011;11249;52.468;13.776;2023-04-24T10:09:11;0.98;;;0.85;;
22166;SDS011;11249;52.468;13.776;2023-04-24T10:11:41;1.05;;;0.77;;
22166;SDS011;11249;52.468;13.776;2023-04-24T10:14:10;3.85;;;1.25;;
22166;SDS011;11249;52.468;13.776;2023-04-24T10:16:39;2.35;;;1.00;;
22166;SDS011;11249;52.468;13.776;2023-04-24T10:19:07;2.20;;;0.98;;
22166;SDS011;11249;52.468;13.776;2023-04-24T10:21:34;3.28;;;1.33;;
22166;SDS011;11249;52.468;13.776;2023-04-24T10:24:04;1.25;;;0.85;;
22166;SDS011;11249;52.468;13.776;2023-04-24T10:26:33;1.73;;;1.23;;
22166;SDS011;11249;52.468;13.776;2023-04-24T10:29:01;2.28;;;1.20;;
22166;SDS011;11249;52.468;13.776;2023-04-24T10:31:31;3.65;;;0.90;;
22166;SDS011;11249;52.468;13.776;2023-04-24T10:33:59;5.40;;;0.93;;
22166;SDS011;11249;52.468;13.776;2023-04-24T10:36:27;1.63;;;1.00;;
22166;SDS011;11249;52.468;13.776;2023-04-24T10:38:58;1.02;;;0.68;;
22166;SDS011;11249;52.468;13.776;2023-04-24T10:41:28;3.10;;;0.80;;
22166;SDS011;11249;52.468;13.776;2023-04-24T10:44:10;1.40;;;0.80;;
22166;SDS011;11249;52.468;13.776;2023-04-24T10:46:39;1.38;;;0.70;;
22166;SDS011;11249;52.468;13.776;2023-04-24T10:49:10;3.35;;;1.20;;
22166;SDS011;11249;52.468;13.776;2023-04-24T10:51:47;4.97;;;1.40;;
22166;SDS011;11249;52.468;13.776;2023-04-24T10:54:25;2.50;;;0.90;;
22166;SDS011;11249;52.468;13.776;2023-04-24T10:59:48;2.38;;;0.80;;
22166;SDS011;11249;52.468;13.776;2023-04-24T11:02:17;3.95;;;0.88;;
22166;SDS011;11249;52.468;13.776;2023-04-24T11:04:44;1.20;;;0.70;;
22166;SDS011;11249;52.468;13.776;2023-04-24T11:07:12;1.58;;;0.80;;
22166;SDS011;11249;52.468;13.776;2023-04-24T11:09:39;1.45;;;0.80;;
22166;SDS011;11249;52.468;13.776;2023-04-24T11:12:10;3.92;;;0.95;;
22166;SDS011;11249;52.468;13.776;2023-04-24T11:17:28;2.30;;;1.13;;
22166;SDS011;11249;52.468;13.776;2023-04-24T11:20:04;1.95;;;1.00;;
22166;SDS011;11249;52.468;13.776;2023-04-24T11:22:55;1.25;;;0.70;;
22166;SDS011;11249;52.468;13.776;2023-04-24T11:25:24;2.30;;;1.30;;
22166;SDS011;11249;52.468;13.776;2023-04-24T11:27:51;20.85;;;14.10;;
22166;SDS011;11249;52.468;13.776;2023-04-24T11:30:30;2.38;;;1.20;;
22166;SDS011;11249;52.468;13.776;2023-04-24T11:33:02;2.28;;;1.20;;
22166;SDS011;11249;52.468;13.776;2023-04-24T11:35:30;3.55;;;1.00;;
22166;SDS011;11249;52.468;13.776;2023-04-24T11:38:03;1.50;;;1.08;;
22166;SDS011;11249;52.468;13.776;2023-04-24T11:40:34;0.93;;;0.80;;
22166;SDS011;11249;52.468;13.776;2023-04-24T11:43:01;2.78;;;0.63;;
22166;SDS011;11249;52.468;13.776;2023-04-24T11:45:33;1.67;;;0.98;;
22166;SDS011;11249;52.468;13.776;2023-04-24T11:48:00;1.25;;;0.70;;
22166;SDS011;11249;52.468;13.776;2023-04-24T11:50:28;2.83;;;1.20;;
22166;SDS011;11249;52.468;13.776;2023-04-24T11:52:55;2.38;;;0.80;;
22166;SDS011;11249;52.468;13.776;2023-04-24T11:57:51;3.65;;;2.53;;
22166;SDS011;11249;52.468;13.776;2023-04-24T12:00:31;3.38;;;1.80;;
22166;SDS011;11249;52.468;13.776;2023-04-24T12:03:04;3.42;;;0.95;;
22166;SDS011;11249;52.468;13.776;2023-04-24T12:05:32;2.05;;;0.80;;
22166;SDS011;11249;52.468;13.776;2023-04-24T12:07:59;1.48;;;0.80;;
22166;SDS011;11249;52.468;13.776;2023-04-24T12:10:27;2.63;;;1.00;;
22166;SDS011;11249;52.468;13.776;2023-04-24T12:12:55;5.70;;;0.90;;
22166;SDS011;11249;52.468;13.776;2023-04-24T12:15:23;1.67;;;0.80;;
22166;SDS011;11249;52.468;13.776;2023-04-24T12:17:51;1.90;;;0.85;;
22166;SDS011;11249;52.468;13.776;2023-04-24T12:20:23;2.50;;;1.00;;
22166;SDS011;11249;52.468;13.776;2023-04-24T12:22:58;1.75;;;1.13;;
22166;SDS011;11249;52.468;13.776;2023-04-24T12:25:31;3.33;;;1.80;;
22166;SDS011;11249;52.468;13.776;2023-04-24T12:30:33;1.67;;;1.35;;
22166;SDS011;11249;52.468;13.776;2023-04-24T12:33:02;4.50;;;3.90;;
22166;SDS011;11249;52.468;13.776;2023-04-24T12:35:30;4.65;;;2.78;;
22166;SDS011;11249;52.468;13.776;2023-04-24T12:38:06;10.93;;;5.07;;
22166;SDS011;11249;52.468;13.776;2023-04-24T12:40:35;10.73;;;5.28;;
22166;SDS011;11249;52.468;13.776;2023-04-24T12:43:02;4.18;;;1.02;;
22166;SDS011;11249;52.468;13.776;2023-04-24T12:45:38;3.58;;;1.52;;
22166;SDS011;11249;52.468;13.776;2023-04-24T12:48:05;1.23;;;0.85;;
22166;SDS011;11249;52.468;13.776;2023-04-24T12:50:32;0.80;;;0.80;;
22166;SDS011;11249;52.468;13.776;2023-04-24T12:52:59;2.80;;;0.77;;
22166;SDS011;11249;52.468;13.776;2023-04-24T12:55:26;1.38;;;0.70;;
22166;SDS011;11249;52.468;13.776;2023-04-24T12:57:52;2.00;;;0.95;;
22166;SDS011;11249;52.468;13.776;2023-04-24T13:00:21;9.27;;;2.88;;
22166;SDS011;11249;52.468;13.776;2023-04-24T13:02:48;6.78;;;3.42;;
22166;SDS011;11249;52.468;13.776;2023-04-24T13:05:15;3.75;;;1.65;;
22166;SDS011;11249;52.468;13.776;2023-04-24T13:07:42;2.25;;;0.90;;
22166;SDS011;11249;52.468;13.776;2023-04-24T13:10:09;3.60;;;2.63;;
22166;SDS011;11249;52.468;13.776;2023-04-24T13:12:35;2.10;;;0.88;;
22166;SDS011;11249;52.468;13.776;2023-04-24T13:15:03;2.13;;;1.08;;
22166;SDS011;11249;52.468;13.776;2023-04-24T13:17:37;6.05;;;0.70;;
22166;SDS011;11249;52.468;13.776;2023-04-24T13:20:04;2.92;;;1.20;;
22166;SDS011;11249;52.468;13.776;2023-04-24T13:22:32;1.10;;;0.65;;
22166;SDS011;11249;52.468;13.776;2023-04-24T13:24:58;2.35;;;0.80;;
22166;SDS011;11249;52.468;13.776;2023-04-24T13:27:25;0.80;;;0.63;;
22166;SDS011;11249;52.468;13.776;2023-04-24T13:29:52;1.10;;;0.43;;
22166;SDS011;11249;52.468;13.776;2023-04-24T13:32:19;1.13;;;0.80;;
22166;SDS011;11249;52.468;13.776;2023-04-24T13:34:46;4.10;;;1.17;;
22166;SDS011;11249;52.468;13.776;2023-04-24T13:37:12;3.63;;;1.60;;
22166;SDS011;11249;52.468;13.776;2023-04-24T13:39:39;6.05;;;2.47;;
22166;SDS011;11249;52.468;13.776;2023-04-24T13:42:07;3.70;;;1.60;;
22166;SDS011;11249;52.468;13.776;2023-04-24T13:44:34;2.55;;;1.35;;
22166;SDS011;11249;52.468;13.776;2023-04-24T13:47:01;1.58;;;1.00;;
22166;SDS011;11249;52.468;13.776;2023-04-24T13:49:28;2.65;;;0.80;;
22166;SDS011;11249;52.468;13.776;2023-04-24T13:51:56;2.17;;;0.75;;
22166;SDS011;11249;52.468;13.776;2023-04-24T13:54:22;0.95;;;0.88;;
22166;SDS011;11249;52.468;13.776;2023-04-24T13:56:52;2.15;;;0.95;;
22166;SDS011;11249;52.468;13.776;2023-04-24T13:59:22;7.43;;;5.53;;
22166;SDS011;11249;52.468;13.776;2023-04-24T14:01:48;3.50;;;1.00;;
22166;SDS011;11249;52.468;13.776;2023-04-24T14:04:15;2.30;;;1.10;;
22166;SDS011;11249;52.468;13.776;2023-04-24T14:06:43;12.32;;;7.70;;
22166;SDS011;11249;52.468;13.776;2023-04-24T14:09:10;2.75;;;1.38;;
22166;SDS011;11249;52.468;13.776;2023-04-24T14:11:36;4.25;;;1.02;;
22166;SDS011;11249;52.468;13.776;2023-04-24T14:14:04;2.22;;;1.20;;
22166;SDS011;11249;52.468;13.776;2023-04-24T14:16:31;1.10;;;0.90;;
22166;SDS011;11249;52.468;13.776;2023-04-24T14:18:58;2.42;;;1.00;;
22166;SDS011;11249;52.468;13.776;2023-04-24T14:21:25;2.10;;;0.80;;
22166;SDS011;11249;52.468;13.776;2023-04-24T14:23:51;1.25;;;0.73;;
22166;SDS011;11249;52.468;13.776;2023-04-24T14:26:19;3.97;;;1.08;;
22166;SDS011;11249;52.468;13.776;2023-04-24T14:28:45;1.60;;;0.63;;
22166;SDS011;11249;52.468;13.776;2023-04-24T14:31:12;2.88;;;0.70;;
22166;SDS011;11249;52.468;13.776;2023-04-24T14:33:39;1.58;;;0.70;;
22166;SDS011;11249;52.468;13.776;2023-04-24T14:36:06;0.85;;;0.80;;
22166;SDS011;11249;52.468;13.776;2023-04-24T14:38:33;2.00;;;0.90;;
22166;SDS011;11249;52.468;13.776;2023-04-24T14:41:00;2.38;;;0.80;;
22166;SDS011;11249;52.468;13.776;2023-04-24T14:43:31;0.70;;;0.70;;
22166;SDS011;11249;52.468;13.776;2023-04-24T14:45:58;1.23;;;0.70;;
22166;SDS011;11249;52.468;13.776;2023-04-24T14:48:25;1.67;;;0.68;;
22166;SDS011;11249;52.468;13.776;2023-04-24T14:50:52;3.42;;;0.80;;
22166;SDS011;11249;52.468;13.776;2023-04-24T14:53:18;1.48;;;0.80;;